sensor_id;sensor_type;location;lat;lon;timestamp;P1;durP1;ratioP1;P2;durP2;ratioP2
12788;SDS011;6458;42.710;23.192;2024-01-15T00:00:21;24.98;;;14.27;;
12788;SDS011;6458;42.710;23.192;2024-01-15T00:02:49;35.33;;;19.05;;
12788;SDS011;6458;42.710;23.192;2024-01-15T00:05:16;29.33;;;16.42;;
12788;SDS011;6458;42.710;23.192;2024-01-15T00:07:42;31.20;;;16.00;;
12788;SDS011;6458;42.710;23.192;2024-01-15T00:10:09;21.08;;;13.20;;
12788;SDS011;6458;42.710;23.192;2024-01-15T00:12:36;32.17;;;16.50;;
12788;SDS011;6458;42.710;23.192;2024-01-15T00:15:03;31.42;;;18.40;;
12788;SDS011;6458;42.710;23.192;2024-01-15T00:17:31;39.15;;;20.33;;
12788;SDS011;6458;42.710;23.192;2024-01-15T00:20:00;33.15;;;18.73;;
12788;SDS011;6458;42.710;23.192;2024-01-15T00:22:26;41.50;;;19.55;;
12788;SDS011;6458;42.710;23.192;2024-01-15T00:24:54;29.35;;;16.52;;
12788;SDS011;6458;42.710;23.192;2024-01-15T00:27:21;17.67;;;9.90;;
12788;SDS011;6458;42.710;23.192;2024-01-15T00:29:48;20.20;;;10.88;;
12788;SDS011;6458;42.710;23.192;2024-01-15T00:32:16;17.50;;;11.60;;
12788;SDS011;6458;42.710;23.192;2024-01-15T00:34:43;34.55;;;15.60;;
12788;SDS011;6458;42.710;23.192;2024-01-15T00:37:12;19.40;;;11.65;;
12788;SDS011;6458;42.710;23.192;2024-01-15T00:39:39;32.03;;;17.13;;
12788;SDS011;6458;42.710;23.192;2024-01-15T00:42:06;38.70;;;21.10;;
12788;SDS011;6458;42.710;23.192;2024-01-15T00:44:33;34.63;;;18.02;;
12788;SDS011;6458;42.710;23.192;2024-01-15T00:47:00;31.88;;;16.67;;
12788;SDS011;6458;42.710;23.192;2024-01-15T00:49:28;33.38;;;16.65;;
12788;SDS011;6458;42.710;23.192;2024-01-15T00:51:55;29.70;;;15.35;;
12788;SDS011;6458;42.710;23.192;2024-01-15T00:54:23;27.80;;;14.77;;
12788;SDS011;6458;42.710;23.192;2024-01-15T00:56:50;31.10;;;15.40;;
12788;SDS011;6458;42.710;23.192;2024-01-15T00:59:17;26.10;;;14.65;;
12788;SDS011;6458;42.710;23.192;2024-01-15T01:01:46;32.97;;;17.10;;
12788;SDS011;6458;42.710;23.192;2024-01-15T01:04:13;38.97;;;16.88;;
12788;SDS011;6458;42.710;23.192;2024-01-15T01:06:40;24.33;;;14.50;;
12788;SDS011;6458;42.710;23.192;2024-01-15T01:09:07;31.73;;;15.30;;
12788;SDS011;6458;42.710;23.192;2024-01-15T01:11:35;24.77;;;15.48;;
12788;SDS011;6458;42.710;23.192;2024-01-15T01:14:02;25.88;;;14.43;;
12788;SDS011;6458;42.710;23.192;2024-01-15T01:16:29;23.27;;;15.07;;
12788;SDS011;6458;42.710;23.192;2024-01-15T01:19:03;29.25;;;15.75;;
12788;SDS011;6458;42.710;23.192;2024-01-15T01:21:30;29.98;;;15.98;;
12788;SDS011;6458;42.710;23.192;2024-01-15T01:23:57;34.45;;;16.33;;
12788;SDS011;6458;42.710;23.192;2024-01-15T01:26:24;34.13;;;17.50;;
12788;SDS011;6458;42.710;23.192;2024-01-15T01:28:53;38.58;;;16.95;;
12788;SDS011;6458;42.710;23.192;2024-01-15T01:31:20;23.00;;;14.57;;
12788;SDS011;6458;42.710;23.192;2024-01-15T01:33:47;29.10;;;13.63;;
12788;SDS011;6458;42.710;23.192;2024-01-15T01:36:14;37.25;;;18.55;;
12788;SDS011;6458;42.710;23.192;2024-01-15T01:38:41;27.27;;;14.55;;
12788;SDS011;6458;42.710;23.192;2024-01-15T01:41:07;28.25;;;15.73;;
12788;SDS011;6458;42.710;23.192;2024-01-15T01:43:34;29.05;;;15.27;;
12788;SDS011;6458;42.710;23.192;2024-01-15T01:46:02;42.30;;;19.83;;
12788;SDS011;6458;42.710;23.192;2024-01-15T01:48:30;33.83;;;16.10;;
12788;SDS011;6458;42.710;23.192;2024-01-15T01:50:59;27.85;;;16.17;;
12788;SDS011;6458;42.710;23.192;2024-01-15T01:53:28;29.02;;;14.60;;
12788;SDS011;6458;42.710;23.192;2024-01-15T01:55:57;24.02;;;13.50;;
12788;SDS011;6458;42.710;23.192;2024-01-15T01:58:24;36.65;;;16.48;;
12788;SDS011;6458;42.710;23.192;2024-01-15T02:00:52;31.30;;;17.27;;
12788;SDS011;6458;42.710;23.192;2024-01-15T02:03:21;23.67;;;14.98;;
12788;SDS011;6458;42.710;23.192;2024-01-15T02:05:49;28.00;;;14.55;;
12788;SDS011;6458;42.710;23.192;2024-01-15T02:08:16;25.05;;;14.30;;
12788;SDS011;6458;42.710;23.192;2024-01-15T02:10:43;39.42;;;18.35;;
12788;SDS011;6458;42.710;23.192;2024-01-15T02:13:10;40.60;;;18.30;;
12788;SDS011;6458;42.710;23.192;2024-01-15T02:15:37;39.25;;;18.25;;
12788;SDS011;6458;42.710;23.192;2024-01-15T02:18:05;34.03;;;18.65;;
12788;SDS011;6458;42.710;23.192;2024-01-15T02:20:34;25.08;;;14.68;;
12788;SDS011;6458;42.710;23.192;2024-01-15T02:23:07;28.33;;;15.52;;
12788;SDS011;6458;42.710;23.192;2024-01-15T02:25:37;24.65;;;12.40;;
12788;SDS011;6458;42.710;23.192;2024-01-15T02:28:04;26.13;;;11.90;;
12788;SDS011;6458;42.710;23.192;2024-01-15T02:30:32;20.48;;;10.25;;
12788;SDS011;6458;42.710;23.192;2024-01-15T02:33:04;22.23;;;13.10;;
12788;SDS011;6458;42.710;23.192;2024-01-15T02:35:31;25.98;;;14.98;;
12788;SDS011;6458;42.710;23.192;2024-01-15T02:37:58;31.20;;;15.82;;
12788;SDS011;6458;42.710;23.192;2024-01-15T02:40:27;23.17;;;12.77;;
12788;SDS011;6458;42.710;23.192;2024-01-15T02:42:54;29.10;;;14.32;;
12788;SDS011;6458;42.710;23.192;2024-01-15T02:45:21;25.65;;;14.05;;
12788;SDS011;6458;42.710;23.192;2024-01-15T02:47:48;21.02;;;12.02;;
12788;SDS011;6458;42.710;23.192;2024-01-15T02:50:15;22.73;;;12.98;;
12788;SDS011;6458;42.710;23.192;2024-01-15T02:52:42;29.65;;;14.13;;
12788;SDS011;6458;42.710;23.192;2024-01-15T02:55:10;24.67;;;13.40;;
12788;SDS011;6458;42.710;23.192;2024-01-15T02:57:38;26.88;;;13.35;;
12788;SDS011;6458;42.710;23.192;2024-01-15T03:00:05;24.85;;;13.90;;
12788;SDS011;6458;42.710;23.192;2024-01-15T03:02:35;21.73;;;12.13;;
12788;SDS011;6458;42.710;23.192;2024-01-15T03:05:04;27.70;;;14.80;;
12788;SDS011;6458;42.710;23.192;2024-01-15T03:07:32;26.77;;;15.10;;
12788;SDS011;6458;42.710;23.192;2024-01-15T03:09:59;23.33;;;14.35;;
12788;SDS011;6458;42.710;23.192;2024-01-15T03:12:25;26.17;;;14.77;;
12788;SDS011;6458;42.710;23.192;2024-01-15T03:14:54;23.60;;;13.15;;
12788;SDS011;6458;42.710;23.192;2024-01-15T03:17:21;25.42;;;12.77;;
12788;SDS011;6458;42.710;23.192;2024-01-15T03:19:48;24.25;;;13.32;;
12788;SDS011;6458;42.710;23.192;2024-01-15T03:22:16;26.98;;;14.18;;
12788;SDS011;6458;42.710;23.192;2024-01-15T03:24:43;23.42;;;13.63;;
12788;SDS011;6458;42.710;23.192;2024-01-15T03:27:10;31.83;;;15.18;;
12788;SDS011;6458;42.710;23.192;2024-01-15T03:29:37;25.38;;;14.43;;
12788;SDS011;6458;42.710;23.192;2024-01-15T03:32:05;23.83;;;12.40;;
12788;SDS011;6458;42.710;23.192;2024-01-15T03:34:33;27.45;;;14.90;;
12788;SDS011;6458;42.710;23.192;2024-01-15T03:37:00;37.15;;;16.30;;
12788;SDS011;6458;42.710;23.192;2024-01-15T03:39:27;24.70;;;12.88;;
12788;SDS011;6458;42.710;23.192;2024-01-15T03:41:53;28.85;;;14.18;;
12788;SDS011;6458;42.710;23.192;2024-01-15T03:44:21;40.80;;;18.05;;
12788;SDS011;6458;42.710;23.192;2024-01-15T03:49:37;27.80;;;16.27;;
12788;SDS011;6458;42.710;23.192;2024-01-15T03:52:04;32.30;;;16.20;;
12788;SDS011;6458;42.710;23.192;2024-01-15T03:54:32;29.88;;;14.70;;
12788;SDS011;6458;42.710;23.192;2024-01-15T03:56:59;25.88;;;14.20;;
12788;SDS011;6458;42.710;23.192;2024-01-15T03:59:26;35.60;;;17.45;;
12788;SDS011;6458;42.710;23.192;2024-01-15T04:01:53;30.65;;;16.90;;
12788;SDS011;6458;42.710;23.192;2024-01-15T04:04:20;34.55;;;15.18;;
12788;SDS011;6458;42.710;23.192;2024-01-15T04:06:48;31.13;;;14.52;;
12788;SDS011;6458;42.710;23.192;2024-01-15T04:09:16;28.80;;;16.17;;
12788;SDS011;6458;42.710;23.192;2024-01-15T04:11:42;26.02;;;14.43;;
12788;SDS011;6458;42.710;23.192;2024-01-15T04:14:10;27.73;;;14.68;;
12788;SDS011;6458;42.710;23.192;2024-01-15T04:16:37;23.35;;;13.23;;
12788;SDS011;6458;42.710;23.192;2024-01-15T04:19:04;19.15;;;11.30;;
12788;SDS011;6458;42.710;23.192;2024-01-15T04:21:31;22.40;;;12.38;;
12788;SDS011;6458;42.710;23.192;2024-01-15T04:24:00;31.00;;;15.38;;
12788;SDS011;6458;42.710;23.192;2024-01-15T04:26:27;26.00;;;13.18;;
12788;SDS011;6458;42.710;23.192;2024-01-15T04:28:54;27.58;;;14.48;;
12788;SDS011;6458;42.710;23.192;2024-01-15T04:31:21;23.20;;;13.15;;
12788;SDS011;6458;42.710;23.192;2024-01-15T04:33:49;26.30;;;15.10;;
12788;SDS011;6458;42.710;23.192;2024-01-15T04:36:16;33.85;;;20.08;;
12788;SDS011;6458;42.710;23.192;2024-01-15T04:38:44;36.47;;;20.67;;
12788;SDS011;6458;42.710;23.192;2024-01-15T04:41:13;25.88;;;15.07;;
12788;SDS011;6458;42.710;23.192;2024-01-15T04:43:40;31.25;;;15.90;;
12788;SDS011;6458;42.710;23.192;2024-01-15T04:51:58;23.52;;;13.48;;
12788;SDS011;6458;42.710;23.192;2024-01-15T04:54:25;20.80;;;12.50;;
12788;SDS011;6458;42.710;23.192;2024-01-15T04:56:54;19.30;;;11.02;;
12788;SDS011;6458;42.710;23.192;2024-01-15T04:59:21;22.95;;;13.13;;
12788;SDS011;6458;42.710;23.192;2024-01-15T05:01:50;21.05;;;12.32;;
12788;SDS011;6458;42.710;23.192;2024-01-15T05:04:17;26.08;;;14.18;;
12788;SDS011;6458;42.710;23.192;2024-01-15T05:06:44;22.95;;;12.65;;
12788;SDS011;6458;42.710;23.192;2024-01-15T05:09:11;29.27;;;14.60;;
12788;SDS011;6458;42.710;23.192;2024-01-15T05:11:38;24.90;;;16.63;;
12788;SDS011;6458;42.710;23.192;2024-01-15T05:14:08;10.07;;;7.95;;
12788;SDS011;6458;42.710;23.192;2024-01-15T05:16:37;26.63;;;17.00;;
12788;SDS011;6458;42.710;23.192;2024-01-15T05:19:05;50.90;;;20.02;;
12788;SDS011;6458;42.710;23.192;2024-01-15T05:21:34;52.75;;;30.95;;
12788;SDS011;6458;42.710;23.192;2024-01-15T05:24:01;60.33;;;32.38;;
12788;SDS011;6458;42.710;23.192;2024-01-15T05:26:28;56.47;;;31.10;;
12788;SDS011;6458;42.710;23.192;2024-01-15T05:28:55;51.95;;;28.98;;
12788;SDS011;6458;42.710;23.192;2024-01-15T05:31:24;53.47;;;31.45;;
12788;SDS011;6458;42.710;23.192;2024-01-15T05:33:51;51.45;;;29.75;;
12788;SDS011;6458;42.710;23.192;2024-01-15T05:36:18;56.85;;;34.83;;
12788;SDS011;6458;42.710;23.192;2024-01-15T05:38:45;68.75;;;42.15;;
12788;SDS011;6458;42.710;23.192;2024-01-15T05:41:12;97.45;;;52.65;;
12788;SDS011;6458;42.710;23.192;2024-01-15T05:43:41;82.80;;;46.22;;
12788;SDS011;6458;42.710;23.192;2024-01-15T05:46:08;92.60;;;53.83;;
12788;SDS011;6458;42.710;23.192;2024-01-15T05:48:37;62.22;;;35.40;;
12788;SDS011;6458;42.710;23.192;2024-01-15T05:51:04;68.28;;;34.90;;
12788;SDS011;6458;42.710;23.192;2024-01-15T05:53:31;51.10;;;31.33;;
12788;SDS011;6458;42.710;23.192;2024-01-15T05:55:58;51.78;;;29.58;;
12788;SDS011;6458;42.710;23.192;2024-01-15T05:58:26;44.33;;;27.98;;
12788;SDS011;6458;42.710;23.192;2024-01-15T06:00:53;49.85;;;27.70;;
12788;SDS011;6458;42.710;23.192;2024-01-15T06:03:20;57.78;;;31.92;;
12788;SDS011;6458;42.710;23.192;2024-01-15T06:05:48;52.15;;;28.67;;
12788;SDS011;6458;42.710;23.192;2024-01-15T06:08:15;52.75;;;29.17;;
12788;SDS011;6458;42.710;23.192;2024-01-15T06:10:47;49.63;;;28.20;;
12788;SDS011;6458;42.710;23.192;2024-01-15T06:13:14;59.00;;;31.77;;
12788;SDS011;6458;42.710;23.192;2024-01-15T06:15:41;60.33;;;33.88;;
12788;SDS011;6458;42.710;23.192;2024-01-15T06:18:08;57.67;;;33.30;;
12788;SDS011;6458;42.710;23.192;2024-01-15T06:20:35;32.22;;;19.63;;
12788;SDS011;6458;42.710;23.192;2024-01-15T06:23:05;33.28;;;17.77;;
12788;SDS011;6458;42.710;23.192;2024-01-15T06:25:32;36.75;;;20.10;;
12788;SDS011;6458;42.710;23.192;2024-01-15T06:27:59;35.83;;;16.92;;
12788;SDS011;6458;42.710;23.192;2024-01-15T06:30:26;27.48;;;16.45;;
12788;SDS011;6458;42.710;23.192;2024-01-15T06:32:58;27.95;;;16.17;;
12788;SDS011;6458;42.710;23.192;2024-01-15T06:35:25;31.17;;;17.13;;
12788;SDS011;6458;42.710;23.192;2024-01-15T06:37:52;37.00;;;18.73;;
12788;SDS011;6458;42.710;23.192;2024-01-15T06:40:20;36.20;;;20.92;;
12788;SDS011;6458;42.710;23.192;2024-01-15T06:42:47;37.85;;;19.85;;
12788;SDS011;6458;42.710;23.192;2024-01-15T06:45:14;37.10;;;19.40;;
12788;SDS011;6458;42.710;23.192;2024-01-15T06:47:41;32.67;;;17.58;;
12788;SDS011;6458;42.710;23.192;2024-01-15T06:50:08;38.20;;;20.75;;
12788;SDS011;6458;42.710;23.192;2024-01-15T06:52:35;44.33;;;21.77;;
12788;SDS011;6458;42.710;23.192;2024-01-15T06:55:02;34.33;;;17.53;;
12788;SDS011;6458;42.710;23.192;2024-01-15T06:57:32;29.85;;;18.00;;
12788;SDS011;6458;42.710;23.192;2024-01-15T07:00:22;40.15;;;20.17;;
12788;SDS011;6458;42.710;23.192;2024-01-15T07:02:58;32.07;;;17.90;;
12788;SDS011;6458;42.710;23.192;2024-01-15T07:05:25;42.53;;;21.73;;
12788;SDS011;6458;42.710;23.192;2024-01-15T07:07:52;35.77;;;20.57;;
12788;SDS011;6458;42.710;23.192;2024-01-15T07:10:22;40.10;;;20.97;;
12788;SDS011;6458;42.710;23.192;2024-01-15T07:12:51;38.70;;;21.40;;
12788;SDS011;6458;42.710;23.192;2024-01-15T07:15:18;41.10;;;19.65;;
12788;SDS011;6458;42.710;23.192;2024-01-15T07:17:45;42.27;;;18.60;;
12788;SDS011;6458;42.710;23.192;2024-01-15T07:20:12;31.70;;;16.90;;
12788;SDS011;6458;42.710;23.192;2024-01-15T07:22:39;26.07;;;15.97;;
12788;SDS011;6458;42.710;23.192;2024-01-15T07:25:06;22.73;;;15.07;;
12788;SDS011;6458;42.710;23.192;2024-01-15T07:27:33;41.10;;;20.73;;
12788;SDS011;6458;42.710;23.192;2024-01-15T07:30:02;33.27;;;17.20;;
12788;SDS011;6458;42.710;23.192;2024-01-15T07:32:30;26.80;;;15.00;;
12788;SDS011;6458;42.710;23.192;2024-01-15T07:34:58;29.50;;;18.00;;
12788;SDS011;6458;42.710;23.192;2024-01-15T07:37:25;47.03;;;23.03;;
12788;SDS011;6458;42.710;23.192;2024-01-15T07:39:51;35.87;;;19.90;;
12788;SDS011;6458;42.710;23.192;2024-01-15T07:42:18;39.90;;;20.20;;
12788;SDS011;6458;42.710;23.192;2024-01-15T07:44:45;34.97;;;18.27;;
12788;SDS011;6458;42.710;23.192;2024-01-15T07:47:14;29.17;;;17.93;;
12788;SDS011;6458;42.710;23.192;2024-01-15T07:49:49;36.80;;;18.07;;
12788;SDS011;6458;42.710;23.192;2024-01-15T07:52:16;18.93;;;12.07;;
12788;SDS011;6458;42.710;23.192;2024-01-15T07:54:43;25.70;;;15.37;;
12788;SDS011;6458;42.710;23.192;2024-01-15T07:57:16;31.93;;;18.00;;
12788;SDS011;6458;42.710;23.192;2024-01-15T07:59:44;24.30;;;15.00;;
12788;SDS011;6458;42.710;23.192;2024-01-15T08:02:11;31.10;;;18.73;;
12788;SDS011;6458;42.710;23.192;2024-01-15T08:04:39;25.17;;;13.63;;
12788;SDS011;6458;42.710;23.192;2024-01-15T08:07:09;20.83;;;13.63;;
12788;SDS011;6458;42.710;23.192;2024-01-15T08:09:36;23.30;;;13.23;;
12788;SDS011;6458;42.710;23.192;2024-01-15T08:12:06;29.30;;;13.33;;
12788;SDS011;6458;42.710;23.192;2024-01-15T08:14:35;25.33;;;14.47;;
12788;SDS011;6458;42.710;23.192;2024-01-15T08:17:05;22.83;;;13.90;;
12788;SDS011;6458;42.710;23.192;2024-01-15T08:19:31;30.93;;;12.80;;
12788;SDS011;6458;42.710;23.192;2024-01-15T08:22:00;43.80;;;24.13;;
12788;SDS011;6458;42.710;23.192;2024-01-15T08:24:27;36.07;;;20.57;;
12788;SDS011;6458;42.710;23.192;2024-01-15T08:26:54;48.50;;;24.63;;
12788;SDS011;6458;42.710;23.192;2024-01-15T08:29:23;45.17;;;23.17;;
12788;SDS011;6458;42.710;23.192;2024-01-15T08:31:51;31.70;;;19.00;;
12788;SDS011;6458;42.710;23.192;2024-01-15T08:34:17;32.93;;;19.47;;
12788;SDS011;6458;42.710;23.192;2024-01-15T08:36:44;36.27;;;20.03;;
12788;SDS011;6458;42.710;23.192;2024-01-15T08:39:13;35.90;;;19.10;;
12788;SDS011;6458;42.710;23.192;2024-01-15T08:41:40;29.97;;;18.20;;
12788;SDS011;6458;42.710;23.192;2024-01-15T08:44:07;30.20;;;18.13;;
12788;SDS011;6458;42.710;23.192;2024-01-15T08:46:34;38.20;;;21.70;;
12788;SDS011;6458;42.710;23.192;2024-01-15T08:49:01;39.83;;;22.97;;
12788;SDS011;6458;42.710;23.192;2024-01-15T08:51:28;39.97;;;23.17;;
12788;SDS011;6458;42.710;23.192;2024-01-15T08:53:56;44.60;;;22.50;;
12788;SDS011;6458;42.710;23.192;2024-01-15T08:56:24;44.80;;;24.93;;
12788;SDS011;6458;42.710;23.192;2024-01-15T08:58:54;51.83;;;27.93;;
12788;SDS011;6458;42.710;23.192;2024-01-15T09:01:49;54.63;;;33.63;;
12788;SDS011;6458;42.710;23.192;2024-01-15T09:04:32;46.00;;;27.97;;
12788;SDS011;6458;42.710;23.192;2024-01-15T09:07:14;46.40;;;30.30;;
12788;SDS011;6458;42.710;23.192;2024-01-15T09:09:57;47.20;;;28.93;;
12788;SDS011;6458;42.710;23.192;2024-01-15T09:12:27;43.83;;;25.47;;
12788;SDS011;6458;42.710;23.192;2024-01-15T09:14:58;27.23;;;17.63;;
12788;SDS011;6458;42.710;23.192;2024-01-15T09:17:29;26.20;;;16.03;;
12788;SDS011;6458;42.710;23.192;2024-01-15T09:22:57;26.40;;;17.33;;
12788;SDS011;6458;42.710;23.192;2024-01-15T09:25:42;38.50;;;25.90;;
12788;SDS011;6458;42.710;23.192;2024-01-15T09:31:08;47.43;;;29.13;;
12788;SDS011;6458;42.710;23.192;2024-01-15T09:33:46;46.07;;;27.80;;
12788;SDS011;6458;42.710;23.192;2024-01-15T09:36:27;43.30;;;27.23;;
12788;SDS011;6458;42.710;23.192;2024-01-15T09:38:56;40.87;;;25.33;;
12788;SDS011;6458;42.710;23.192;2024-01-15T09:41:23;42.53;;;25.30;;
12788;SDS011;6458;42.710;23.192;2024-01-15T09:43:57;41.03;;;24.50;;
12788;SDS011;6458;42.710;23.192;2024-01-15T09:46:27;41.20;;;26.43;;
12788;SDS011;6458;42.710;23.192;2024-01-15T09:48:54;42.13;;;26.33;;
12788;SDS011;6458;42.710;23.192;2024-01-15T09:51:21;44.77;;;28.50;;
12788;SDS011;6458;42.710;23.192;2024-01-15T09:57:14;40.47;;;23.17;;
12788;SDS011;6458;42.710;23.192;2024-01-15T09:59:52;46.17;;;29.13;;
12788;SDS011;6458;42.710;23.192;2024-01-15T10:08:13;43.87;;;24.97;;
12788;SDS011;6458;42.710;23.192;2024-01-15T10:10:41;30.50;;;20.17;;
12788;SDS011;6458;42.710;23.192;2024-01-15T10:13:11;46.00;;;27.80;;
12788;SDS011;6458;42.710;23.192;2024-01-15T10:15:41;49.37;;;26.23;;
12788;SDS011;6458;42.710;23.192;2024-01-15T10:18:30;43.33;;;22.90;;
12788;SDS011;6458;42.710;23.192;2024-01-15T10:21:00;26.20;;;15.57;;
12788;SDS011;6458;42.710;23.192;2024-01-15T10:23:29;31.30;;;16.93;;
12788;SDS011;6458;42.710;23.192;2024-01-15T10:26:16;34.80;;;18.40;;
12788;SDS011;6458;42.710;23.192;2024-01-15T10:28:43;40.03;;;20.60;;
12788;SDS011;6458;42.710;23.192;2024-01-15T10:31:14;43.40;;;23.10;;
12788;SDS011;6458;42.710;23.192;2024-01-15T10:33:41;35.13;;;18.33;;
12788;SDS011;6458;42.710;23.192;2024-01-15T10:36:09;79.63;;;44.20;;
12788;SDS011;6458;42.710;23.192;2024-01-15T10:38:36;24.73;;;14.30;;
12788;SDS011;6458;42.710;23.192;2024-01-15T10:41:04;34.90;;;21.97;;
12788;SDS011;6458;42.710;23.192;2024-01-15T10:43:31;19.83;;;11.37;;
12788;SDS011;6458;42.710;23.192;2024-01-15T10:45:59;30.00;;;20.90;;
12788;SDS011;6458;42.710;23.192;2024-01-15T10:48:28;28.77;;;16.50;;
12788;SDS011;6458;42.710;23.192;2024-01-15T10:50:56;39.10;;;21.73;;
12788;SDS011;6458;42.710;23.192;2024-01-15T10:53:24;33.53;;;20.90;;
12788;SDS011;6458;42.710;23.192;2024-01-15T10:55:51;32.97;;;20.10;;
12788;SDS011;6458;42.710;23.192;2024-01-15T10:58:19;31.00;;;18.57;;
12788;SDS011;6458;42.710;23.192;2024-01-15T11:00:48;42.20;;;24.97;;
12788;SDS011;6458;42.710;23.192;2024-01-15T11:03:15;52.93;;;28.70;;
12788;SDS011;6458;42.710;23.192;2024-01-15T11:05:48;41.43;;;27.20;;
12788;SDS011;6458;42.710;23.192;2024-01-15T11:08:16;44.43;;;25.53;;
12788;SDS011;6458;42.710;23.192;2024-01-15T11:10:44;56.73;;;30.60;;
12788;SDS011;6458;42.710;23.192;2024-01-15T11:13:14;32.90;;;20.77;;
12788;SDS011;6458;42.710;23.192;2024-01-15T11:15:54;44.07;;;24.90;;
12788;SDS011;6458;42.710;23.192;2024-01-15T11:18:22;23.03;;;15.63;;
12788;SDS011;6458;42.710;23.192;2024-01-15T11:23:57;16.43;;;13.13;;
12788;SDS011;6458;42.710;23.192;2024-01-15T11:26:29;19.60;;;13.47;;
12788;SDS011;6458;42.710;23.192;2024-01-15T11:29:00;21.13;;;12.03;;
12788;SDS011;6458;42.710;23.192;2024-01-15T11:31:28;19.17;;;13.80;;
12788;SDS011;6458;42.710;23.192;2024-01-15T11:33:56;25.73;;;13.77;;
12788;SDS011;6458;42.710;23.192;2024-01-15T11:39:42;31.40;;;21.10;;
12788;SDS011;6458;42.710;23.192;2024-01-15T11:42:09;26.10;;;16.70;;
12788;SDS011;6458;42.710;23.192;2024-01-15T11:44:38;23.27;;;16.13;;
12788;SDS011;6458;42.710;23.192;2024-01-15T11:47:06;23.03;;;16.73;;
12788;SDS011;6458;42.710;23.192;2024-01-15T11:49:40;19.80;;;15.77;;
12788;SDS011;6458;42.710;23.192;2024-01-15T11:52:30;21.97;;;17.37;;
12788;SDS011;6458;42.710;23.192;2024-01-15T11:57:46;25.47;;;16.13;;
12788;SDS011;6458;42.710;23.192;2024-01-15T12:00:19;23.40;;;17.13;;
12788;SDS011;6458;42.710;23.192;2024-01-15T12:02:47;25.40;;;17.33;;
12788;SDS011;6458;42.710;23.192;2024-01-15T12:05:16;29.90;;;17.73;;
12788;SDS011;6458;42.710;23.192;2024-01-15T12:07:47;32.37;;;20.07;;
12788;SDS011;6458;42.710;23.192;2024-01-15T12:10:17;29.97;;;16.53;;
12788;SDS011;6458;42.710;23.192;2024-01-15T12:12:56;27.83;;;17.67;;
12788;SDS011;6458;42.710;23.192;2024-01-15T12:15:25;32.83;;;19.27;;
12788;SDS011;6458;42.710;23.192;2024-01-15T12:17:54;26.63;;;17.30;;
12788;SDS011;6458;42.710;23.192;2024-01-15T12:20:23;28.30;;;17.67;;
12788;SDS011;6458;42.710;23.192;2024-01-15T12:22:53;25.60;;;18.33;;
12788;SDS011;6458;42.710;23.192;2024-01-15T12:25:24;26.33;;;18.43;;
12788;SDS011;6458;42.710;23.192;2024-01-15T12:27:55;32.80;;;19.83;;
12788;SDS011;6458;42.710;23.192;2024-01-15T12:30:23;41.67;;;26.47;;
12788;SDS011;6458;42.710;23.192;2024-01-15T12:32:50;60.50;;;38.60;;
12788;SDS011;6458;42.710;23.192;2024-01-15T12:35:19;34.60;;;20.53;;
12788;SDS011;6458;42.710;23.192;2024-01-15T12:37:51;29.77;;;18.80;;
12788;SDS011;6458;42.710;23.192;2024-01-15T12:40:18;53.93;;;33.97;;
12788;SDS011;6458;42.710;23.192;2024-01-15T12:42:48;49.53;;;31.53;;
12788;SDS011;6458;42.710;23.192;2024-01-15T12:45:15;37.87;;;26.30;;
12788;SDS011;6458;42.710;23.192;2024-01-15T12:47:44;27.53;;;17.73;;
12788;SDS011;6458;42.710;23.192;2024-01-15T12:50:12;24.33;;;16.77;;
12788;SDS011;6458;42.710;23.192;2024-01-15T12:52:39;28.67;;;18.80;;
12788;SDS011;6458;42.710;23.192;2024-01-15T12:55:07;34.83;;;22.90;;
12788;SDS011;6458;42.710;23.192;2024-01-15T12:57:35;38.93;;;23.73;;
12788;SDS011;6458;42.710;23.192;2024-01-15T13:00:04;38.17;;;23.30;;
12788;SDS011;6458;42.710;23.192;2024-01-15T13:02:36;43.43;;;24.97;;
12788;SDS011;6458;42.710;23.192;2024-01-15T13:05:12;36.67;;;24.53;;
12788;SDS011;6458;42.710;23.192;2024-01-15T13:07:39;41.00;;;26.43;;
12788;SDS011;6458;42.710;23.192;2024-01-15T13:10:09;44.47;;;28.13;;
12788;SDS011;6458;42.710;23.192;2024-01-15T13:12:36;41.00;;;25.93;;
12788;SDS011;6458;42.710;23.192;2024-01-15T13:15:05;43.83;;;28.00;;
12788;SDS011;6458;42.710;23.192;2024-01-15T13:17:36;35.43;;;25.57;;
12788;SDS011;6458;42.710;23.192;2024-01-15T13:20:03;28.50;;;18.80;;
12788;SDS011;6458;42.710;23.192;2024-01-15T13:22:34;34.10;;;22.30;;
12788;SDS011;6458;42.710;23.192;2024-01-15T13:25:01;31.73;;;21.83;;
12788;SDS011;6458;42.710;23.192;2024-01-15T13:27:29;35.57;;;24.30;;
12788;SDS011;6458;42.710;23.192;2024-01-15T13:30:04;34.97;;;23.13;;
12788;SDS011;6458;42.710;23.192;2024-01-15T13:32:33;27.20;;;19.07;;
12788;SDS011;6458;42.710;23.192;2024-01-15T13:35:00;33.13;;;20.67;;
12788;SDS011;6458;42.710;23.192;2024-01-15T13:37:27;32.30;;;22.53;;
12788;SDS011;6458;42.710;23.192;2024-01-15T13:39:57;34.60;;;19.73;;
12788;SDS011;6458;42.710;23.192;2024-01-15T13:42:23;28.00;;;19.23;;
12788;SDS011;6458;42.710;23.192;2024-01-15T13:44:52;32.33;;;18.87;;
12788;SDS011;6458;42.710;23.192;2024-01-15T13:47:26;27.33;;;18.10;;
12788;SDS011;6458;42.710;23.192;2024-01-15T13:49:56;27.73;;;19.80;;
12788;SDS011;6458;42.710;23.192;2024-01-15T13:52:25;35.13;;;21.17;;
12788;SDS011;6458;42.710;23.192;2024-01-15T13:55:03;34.47;;;21.80;;
12788;SDS011;6458;42.710;23.192;2024-01-15T13:57:33;38.23;;;22.53;;
12788;SDS011;6458;42.710;23.192;2024-01-15T14:00:06;35.30;;;21.97;;
12788;SDS011;6458;42.710;23.192;2024-01-15T14:02:38;32.47;;;21.50;;
12788;SDS011;6458;42.710;23.192;2024-01-15T14:05:04;32.97;;;20.40;;
12788;SDS011;6458;42.710;23.192;2024-01-15T14:07:36;38.43;;;21.90;;
12788;SDS011;6458;42.710;23.192;2024-01-15T14:10:03;30.63;;;19.60;;
12788;SDS011;6458;42.710;23.192;2024-01-15T14:12:30;31.47;;;20.90;;
12788;SDS011;6458;42.710;23.192;2024-01-15T14:15:03;30.63;;;20.03;;
12788;SDS011;6458;42.710;23.192;2024-01-15T14:17:38;30.40;;;20.50;;
12788;SDS011;6458;42.710;23.192;2024-01-15T14:20:06;28.53;;;20.03;;
12788;SDS011;6458;42.710;23.192;2024-01-15T14:22:37;32.53;;;20.67;;
12788;SDS011;6458;42.710;23.192;2024-01-15T14:25:04;35.90;;;20.97;;
12788;SDS011;6458;42.710;23.192;2024-01-15T14:27:32;38.37;;;20.10;;
12788;SDS011;6458;42.710;23.192;2024-01-15T14:30:04;26.73;;;19.23;;
12788;SDS011;6458;42.710;23.192;2024-01-15T14:32:34;26.80;;;18.50;;
12788;SDS011;6458;42.710;23.192;2024-01-15T14:35:06;24.60;;;18.00;;
12788;SDS011;6458;42.710;23.192;2024-01-15T14:37:36;31.07;;;20.87;;
12788;SDS011;6458;42.710;23.192;2024-01-15T14:40:15;30.30;;;18.90;;
12788;SDS011;6458;42.710;23.192;2024-01-15T14:42:47;25.93;;;17.97;;
12788;SDS011;6458;42.710;23.192;2024-01-15T14:45:20;29.47;;;19.50;;
12788;SDS011;6458;42.710;23.192;2024-01-15T14:47:55;39.43;;;23.87;;
12788;SDS011;6458;42.710;23.192;2024-01-15T14:50:37;37.47;;;23.90;;
12788;SDS011;6458;42.710;23.192;2024-01-15T14:53:04;30.63;;;19.77;;
12788;SDS011;6458;42.710;23.192;2024-01-15T14:55:31;39.17;;;23.20;;
12788;SDS011;6458;42.710;23.192;2024-01-15T14:58:00;33.70;;;20.60;;
12788;SDS011;6458;42.710;23.192;2024-01-15T15:00:33;38.13;;;23.73;;
12788;SDS011;6458;42.710;23.192;2024-01-15T15:03:03;32.67;;;21.27;;